createdAt,value
2023-03-06T00:00:57.301Z,6.82
2023-03-06T00:03:27.630Z,6.78
2023-03-06T00:05:57.354Z,7.53
2023-03-06T00:08:26.726Z,7.30
2023-03-06T00:10:54.905Z,7.10
2023-03-06T00:13:22.464Z,7.95
2023-03-06T00:15:49.765Z,7.95
2023-03-06T00:18:17.112Z,8.02
2023-03-06T00:20:45.219Z,8.02
2023-03-06T00:23:12.882Z,8.50
2023-03-06T00:25:44.469Z,7.82
2023-03-06T00:28:12.363Z,8.70
2023-03-06T00:30:39.950Z,8.77
2023-03-06T00:33:07.314Z,9.77
2023-03-06T00:35:34.639Z,9.15
2023-03-06T00:38:02.029Z,11.38
2023-03-06T00:40:29.271Z,12.25
2023-03-06T00:42:56.579Z,13.07
2023-03-06T00:45:23.921Z,13.60
2023-03-06T00:47:51.293Z,14.00
2023-03-06T00:50:18.757Z,13.23
2023-03-06T00:52:46.034Z,15.00
2023-03-06T00:55:13.253Z,13.85
2023-03-06T00:57:41.172Z,15.55
2023-03-06T01:00:11.054Z,14.70
2023-03-06T01:02:38.473Z,14.48
2023-03-06T01:05:06.279Z,15.82
2023-03-06T01:07:36.412Z,17.15
2023-03-06T01:10:05.581Z,17.58
2023-03-06T01:12:32.829Z,16.70
2023-03-06T01:15:00.184Z,18.15
2023-03-06T01:17:27.441Z,16.48
2023-03-06T01:19:54.687Z,18.08
2023-03-06T01:22:21.913Z,17.40
2023-03-06T01:24:49.178Z,17.98
2023-03-06T01:27:16.431Z,17.55
2023-03-06T01:29:44.176Z,16.35
2023-03-06T01:32:11.582Z,18.58
2023-03-06T01:34:39.026Z,19.13
2023-03-06T01:37:06.285Z,18.77
2023-03-06T01:39:33.527Z,18.17
2023-03-06T01:42:00.749Z,18.83
2023-03-06T01:44:28.114Z,18.20
2023-03-06T01:46:55.460Z,18.17
2023-03-06T01:49:32.190Z,17.42
2023-03-06T01:52:02.516Z,17.45
2023-03-06T01:54:35.668Z,18.33
2023-03-06T01:57:19.040Z,17.35
2023-03-06T01:59:49.426Z,18.35
2023-03-06T02:02:16.836Z,17.38
2023-03-06T02:04:44.485Z,18.77
2023-03-06T02:07:12.659Z,18.10
2023-03-06T02:09:40.029Z,19.80
2023-03-06T02:12:13.364Z,18.00
2023-03-06T02:14:42.266Z,18.17
2023-03-06T02:17:12.326Z,20.38
2023-03-06T02:19:54.255Z,19.67
2023-03-06T02:22:22.416Z,19.45
2023-03-06T02:25:06.658Z,20.08
2023-03-06T02:27:34.213Z,19.38
2023-03-06T02:30:06.700Z,19.33
2023-03-06T02:32:34.105Z,19.17
2023-03-06T02:35:01.550Z,22.83
2023-03-06T02:37:29.024Z,20.58
2023-03-06T02:40:09.212Z,21.23
2023-03-06T02:42:36.663Z,18.17
2023-03-06T02:45:07.408Z,20.05
2023-03-06T02:47:34.643Z,18.75
2023-03-06T02:50:01.965Z,19.30
2023-03-06T02:52:29.308Z,19.80
2023-03-06T02:54:56.602Z,21.27
2023-03-06T02:57:24.431Z,20.55
2023-03-06T02:59:51.750Z,18.67
2023-03-06T03:02:19.221Z,17.10
2023-03-06T03:04:46.578Z,17.85
2023-03-06T03:07:14.357Z,18.67
2023-03-06T03:09:42.564Z,17.55
2023-03-06T03:12:10.159Z,17.17
2023-03-06T03:14:37.618Z,17.75
2023-03-06T03:17:04.975Z,18.35
2023-03-06T03:19:32.550Z,16.55
2023-03-06T03:21:59.843Z,16.50
2023-03-06T03:24:27.540Z,17.00
2023-03-06T03:26:55.560Z,16.70
2023-03-06T03:29:24.543Z,17.40
2023-03-06T03:31:53.168Z,17.63
2023-03-06T03:34:20.669Z,17.77
2023-03-06T03:36:47.945Z,18.10
2023-03-06T03:39:16.894Z,17.52
2023-03-06T03:41:44.181Z,17.45
2023-03-06T03:44:12.992Z,17.73
2023-03-06T03:46:40.277Z,17.13
2023-03-06T03:49:12.742Z,18.10
2023-03-06T03:51:40.371Z,21.17
2023-03-06T03:54:07.840Z,18.20
2023-03-06T03:56:41.831Z,18.88
2023-03-06T03:59:15.754Z,18.00
2023-03-06T04:01:53.018Z,17.85
2023-03-06T04:04:20.430Z,16.08
2023-03-06T04:06:48.714Z,15.63
2023-03-06T04:09:17.979Z,15.80
2023-03-06T04:11:45.611Z,15.73
2023-03-06T04:14:12.958Z,16.70
2023-03-06T04:16:40.176Z,16.08
2023-03-06T04:19:07.485Z,15.85
2023-03-06T04:21:35.393Z,15.45
2023-03-06T04:24:02.693Z,15.35
2023-03-06T04:26:30.223Z,15.30
2023-03-06T04:28:58.498Z,16.05
2023-03-06T04:31:25.960Z,16.05
2023-03-06T04:33:53.526Z,14.75
2023-03-06T04:36:28.440Z,15.70
2023-03-06T04:39:00.111Z,16.73
2023-03-06T04:41:27.959Z,16.00
2023-03-06T04:43:55.347Z,16.70
2023-03-06T04:46:22.730Z,17.55
2023-03-06T04:48:49.958Z,15.70
2023-03-06T04:51:17.291Z,16.50
2023-03-06T04:53:44.502Z,16.50
2023-03-06T04:56:11.720Z,16.70
2023-03-06T04:58:39.047Z,16.63
2023-03-06T05:01:06.586Z,16.85
2023-03-06T05:03:33.828Z,17.55
2023-03-06T05:06:01.268Z,16.83
2023-03-06T05:08:29.138Z,18.75
2023-03-06T05:11:01.041Z,17.35
2023-03-06T05:13:28.367Z,18.35
2023-03-06T05:15:55.740Z,17.33
2023-03-06T05:18:23.040Z,17.35
2023-03-06T05:20:50.289Z,18.83
2023-03-06T05:23:17.515Z,17.77
2023-03-06T05:25:44.752Z,18.13
2023-03-06T05:28:12.031Z,17.45
2023-03-06T05:30:39.750Z,16.98
2023-03-06T05:33:07.036Z,17.58
2023-03-06T05:35:34.293Z,16.67
2023-03-06T05:38:01.612Z,17.23
2023-03-06T05:40:28.879Z,15.60
2023-03-06T05:42:56.161Z,16.60
2023-03-06T05:45:23.378Z,16.98
2023-03-06T05:47:50.614Z,17.60
2023-03-06T05:50:18.026Z,19.10
2023-03-06T05:52:45.277Z,19.45
2023-03-06T05:55:12.860Z,20.00
2023-03-06T05:57:40.169Z,19.58
2023-03-06T06:00:09.129Z,21.15
2023-03-06T06:02:45.369Z,18.88
2023-03-06T06:05:13.409Z,19.42
2023-03-06T06:07:41.259Z,21.05
2023-03-06T06:10:09.505Z,20.50
2023-03-06T06:12:36.779Z,18.95
2023-03-06T06:15:04.660Z,19.67
2023-03-06T06:17:31.912Z,19.20
2023-03-06T06:19:59.293Z,18.98
2023-03-06T06:22:26.571Z,18.33
2023-03-06T06:24:53.890Z,18.50
2023-03-06T06:27:21.203Z,17.83
2023-03-06T06:29:52.082Z,19.10
2023-03-06T06:32:19.706Z,19.25
2023-03-06T06:34:47.139Z,19.58
2023-03-06T06:37:14.431Z,19.85
2023-03-06T06:39:42.750Z,18.98
2023-03-06T06:42:29.933Z,18.20
2023-03-06T06:44:57.436Z,19.50
2023-03-06T06:47:25.808Z,18.73
2023-03-06T06:49:54.513Z,19.38
2023-03-06T06:52:23.405Z,18.27
2023-03-06T06:54:51.214Z,17.77
2023-03-06T06:57:18.775Z,16.13
2023-03-06T06:59:46.051Z,17.25
2023-03-06T07:02:15.881Z,17.80
2023-03-06T07:05:00.370Z,19.13
2023-03-06T07:07:30.080Z,19.30
2023-03-06T07:09:57.368Z,19.52
2023-03-06T07:12:24.641Z,20.17
2023-03-06T07:14:51.966Z,19.63
2023-03-06T07:17:19.305Z,18.63
2023-03-06T07:19:46.580Z,21.00
2023-03-06T07:22:14.129Z,19.95
2023-03-06T07:24:41.414Z,20.83
2023-03-06T07:27:08.645Z,20.90
2023-03-06T07:29:36.045Z,22.25
2023-03-06T07:32:03.503Z,22.42
2023-03-06T07:34:30.797Z,22.90
2023-03-06T07:36:58.130Z,24.88
2023-03-06T07:39:25.496Z,25.20
2023-03-06T07:41:53.482Z,26.60
2023-03-06T07:44:20.848Z,27.45
2023-03-06T07:46:48.426Z,27.27
2023-03-06T07:49:16.681Z,26.83
2023-03-06T07:51:44.247Z,25.63
2023-03-06T07:54:11.508Z,27.20
2023-03-06T07:56:38.844Z,24.42
2023-03-06T07:59:06.080Z,27.83
2023-03-06T08:01:33.452Z,26.38
2023-03-06T08:04:02.149Z,26.40
2023-03-06T08:06:29.512Z,25.60
2023-03-06T08:08:57.314Z,26.83
2023-03-06T08:11:27.183Z,24.52
2023-03-06T08:13:55.737Z,25.38
2023-03-06T08:16:29.268Z,23.20
2023-03-06T08:18:57.282Z,23.77
2023-03-06T08:21:27.355Z,24.58
2023-03-06T08:23:54.694Z,23.25
2023-03-06T08:26:25.353Z,23.48
2023-03-06T08:28:54.237Z,23.98
2023-03-06T08:31:33.001Z,25.88
2023-03-06T08:34:03.233Z,27.15
2023-03-06T08:36:30.811Z,27.17
2023-03-06T08:38:58.676Z,28.20
2023-03-06T08:41:26.405Z,27.15
2023-03-06T08:43:53.677Z,28.08
2023-03-06T08:46:23.804Z,26.65
2023-03-06T08:48:51.634Z,28.27
2023-03-06T08:51:19.892Z,27.38
2023-03-06T08:53:47.714Z,28.77
2023-03-06T08:56:16.791Z,27.83
2023-03-06T08:58:44.276Z,25.92
2023-03-06T09:01:16.840Z,26.38
2023-03-06T09:03:44.322Z,25.17
2023-03-06T09:06:11.781Z,25.67
2023-03-06T09:08:42.876Z,23.85
2023-03-06T09:11:15.454Z,25.00
2023-03-06T09:13:43.627Z,25.65
2023-03-06T09:16:11.784Z,26.95
2023-03-06T09:18:39.747Z,24.13
2023-03-06T09:21:08.458Z,24.05
2023-03-06T09:23:37.041Z,23.58
2023-03-06T09:26:04.538Z,26.13
2023-03-06T09:28:32.346Z,23.73
2023-03-06T09:30:59.727Z,23.45
2023-03-06T09:33:28.644Z,22.77
2023-03-06T09:35:57.095Z,23.55
2023-03-06T09:38:28.165Z,22.70
2023-03-06T09:40:58.289Z,20.52
2023-03-06T09:43:39.292Z,17.60
2023-03-06T09:46:18.733Z,18.83
2023-03-06T09:48:52.276Z,18.10
2023-03-06T09:51:26.088Z,17.52
2023-03-06T09:54:05.030Z,18.23
2023-03-06T09:56:35.673Z,17.55
2023-03-06T09:59:26.850Z,18.35
2023-03-06T10:02:19.141Z,18.10
2023-03-06T10:04:51.765Z,17.08
2023-03-06T10:07:27.911Z,19.40
2023-03-06T10:10:02.532Z,18.83
2023-03-06T10:15:26.699Z,18.90
2023-03-06T10:17:54.529Z,18.83
2023-03-06T10:20:27.978Z,19.63
2023-03-06T10:23:05.392Z,19.42
2023-03-06T10:25:53.459Z,19.58
2023-03-06T10:28:52.447Z,18.45
2023-03-06T10:31:25.601Z,19.30
2023-03-06T10:34:18.163Z,19.05
2023-03-06T10:36:45.469Z,17.08
2023-03-06T10:39:21.406Z,18.17
2023-03-06T10:41:50.055Z,17.33
2023-03-06T10:44:19.707Z,15.85
2023-03-06T10:46:49.597Z,16.85
2023-03-06T10:49:22.713Z,15.38
2023-03-06T10:52:05.577Z,15.88
2023-03-06T10:54:42.404Z,15.77
2023-03-06T10:57:35.997Z,14.40
2023-03-06T11:00:22.664Z,15.75
2023-03-06T11:03:23.285Z,13.73
2023-03-06T11:06:12.271Z,14.30
2023-03-06T11:08:42.353Z,13.90
2023-03-06T11:11:36.672Z,14.15
2023-03-06T11:14:14.962Z,13.48
2023-03-06T11:16:53.239Z,11.63
2023-03-06T11:19:29.089Z,11.70
2023-03-06T11:22:19.749Z,12.35
2023-03-06T11:24:50.643Z,12.07
2023-03-06T11:27:34.410Z,11.35
2023-03-06T11:30:14.482Z,10.27
2023-03-06T11:32:55.281Z,9.50
2023-03-06T11:35:26.483Z,9.05
2023-03-06T11:38:04.257Z,8.95
2023-03-06T11:40:40.272Z,9.48
2023-03-06T11:43:41.413Z,8.65
2023-03-06T11:46:27.799Z,8.07
2023-03-06T11:49:06.360Z,9.32
2023-03-06T11:51:38.903Z,9.07
2023-03-06T11:54:08.492Z,9.80
2023-03-06T11:56:49.946Z,9.30
2023-03-06T11:59:54.732Z,9.73
2023-03-06T12:02:39.271Z,9.30
2023-03-06T12:05:25.158Z,8.85
2023-03-06T12:08:01.905Z,10.90
2023-03-06T12:10:57.503Z,10.25
2023-03-06T12:16:47.544Z,9.10
2023-03-06T12:19:39.721Z,9.43
2023-03-06T12:22:22.123Z,10.45
2023-03-06T12:25:09.449Z,10.13
2023-03-06T12:27:48.162Z,9.77
2023-03-06T12:30:32.519Z,9.68
2023-03-06T12:33:17.668Z,10.38
2023-03-06T12:35:50.782Z,11.20
2023-03-06T12:38:29.546Z,10.48
2023-03-06T12:41:18.397Z,13.82
2023-03-06T12:44:30.311Z,10.75
2023-03-06T12:47:02.511Z,11.93
2023-03-06T12:49:33.438Z,13.40
2023-03-06T12:52:02.122Z,13.60
2023-03-06T12:54:33.074Z,12.98
2023-03-06T12:57:01.059Z,12.90
2023-03-06T12:59:54.798Z,11.85
2023-03-06T13:02:47.707Z,13.55
2023-03-06T13:05:50.095Z,13.18
2023-03-06T13:08:46.489Z,13.68
2023-03-06T13:11:42.767Z,12.27
2023-03-06T13:14:34.235Z,15.25
2023-03-06T13:17:21.305Z,13.70
2023-03-06T13:20:09.227Z,14.55
2023-03-06T13:22:36.574Z,12.95
2023-03-06T13:25:26.707Z,13.90
2023-03-06T13:27:53.905Z,13.02
2023-03-06T13:30:38.176Z,11.85
2023-03-06T13:33:25.701Z,12.30
2023-03-06T13:35:59.935Z,13.07
2023-03-06T13:38:34.083Z,13.07
2023-03-06T13:41:23.024Z,12.80
2023-03-06T13:43:59.363Z,11.30
2023-03-06T13:46:31.242Z,11.32
2023-03-06T13:49:10.717Z,12.35
2023-03-06T13:51:44.898Z,11.52
2023-03-06T13:54:33.899Z,11.00
2023-03-06T13:57:21.479Z,10.55
2023-03-06T14:00:16.400Z,11.57
2023-03-06T14:02:58.796Z,11.07
2023-03-06T14:05:47.046Z,9.32
2023-03-06T14:08:17.179Z,10.30
2023-03-06T14:10:46.920Z,10.13
2023-03-06T14:13:16.154Z,11.07
2023-03-06T14:15:51.911Z,9.70
2023-03-06T14:18:30.867Z,10.50
2023-03-06T14:21:04.371Z,9.50
2023-03-06T14:23:42.215Z,9.35
2023-03-06T14:26:25.787Z,9.00
2023-03-06T14:28:53.050Z,12.05
2023-03-06T14:31:23.329Z,12.02
2023-03-06T14:33:55.186Z,13.00
2023-03-06T14:36:28.052Z,14.35
2023-03-06T14:39:05.477Z,14.25
2023-03-06T14:41:34.637Z,15.10
2023-03-06T14:44:23.176Z,15.32
2023-03-06T14:46:55.574Z,16.75
2023-03-06T14:49:25.137Z,15.57
2023-03-06T14:51:55.782Z,15.02
2023-03-06T14:54:29.118Z,14.82
2023-03-06T14:57:02.600Z,15.82
2023-03-06T14:59:32.922Z,15.57
2023-03-06T15:02:04.254Z,17.23
2023-03-06T15:04:56.915Z,16.08
2023-03-06T15:07:32.032Z,16.58
2023-03-06T15:10:00.530Z,16.70
2023-03-06T15:12:29.569Z,15.98
2023-03-06T15:14:58.003Z,16.67
2023-03-06T15:17:29.774Z,17.08
2023-03-06T15:19:59.905Z,16.27
2023-03-06T15:22:35.586Z,16.63
2023-03-06T15:25:21.927Z,17.15
2023-03-06T15:27:54.908Z,15.70
2023-03-06T15:30:34.038Z,16.13
2023-03-06T15:33:19.407Z,16.95
2023-03-06T15:36:01.951Z,14.07
2023-03-06T15:38:36.941Z,16.40
2023-03-06T15:41:06.376Z,18.90
2023-03-06T15:43:40.342Z,12.02
2023-03-06T15:46:07.887Z,12.38
2023-03-06T15:48:35.459Z,13.00
2023-03-06T15:51:03.525Z,13.48
2023-03-06T15:53:30.862Z,12.63
2023-03-06T15:55:59.194Z,13.00
2023-03-06T15:58:30.359Z,12.75
2023-03-06T16:00:57.683Z,11.43
2023-03-06T16:03:24.982Z,13.38
2023-03-06T16:05:52.257Z,13.40
2023-03-06T16:08:19.691Z,15.98
2023-03-06T16:10:47.732Z,12.55
2023-03-06T16:13:41.290Z,12.98
2023-03-06T16:16:19.267Z,12.55
2023-03-06T16:18:46.663Z,13.20
2023-03-06T16:21:14.250Z,12.43
2023-03-06T16:23:41.552Z,13.88
2023-03-06T16:26:45.317Z,12.77
2023-03-06T16:29:20.673Z,12.70
2023-03-06T16:31:48.513Z,13.25
2023-03-06T16:34:16.225Z,13.68
2023-03-06T16:36:43.547Z,13.98
2023-03-06T16:39:14.847Z,14.20
2023-03-06T16:41:42.106Z,14.25
2023-03-06T16:44:10.177Z,14.35
2023-03-06T16:46:40.678Z,16.25
2023-03-06T16:49:12.518Z,16.30
2023-03-06T16:51:40.410Z,18.80
2023-03-06T16:54:07.656Z,16.65
2023-03-06T16:56:34.918Z,16.35
2023-03-06T16:59:02.137Z,17.48
2023-03-06T17:01:29.422Z,16.17
2023-03-06T17:03:56.682Z,17.13
2023-03-06T17:06:24.016Z,18.02
2023-03-06T17:08:51.559Z,17.48
2023-03-06T17:11:20.273Z,17.90
2023-03-06T17:13:48.213Z,17.90
2023-03-06T17:16:16.442Z,17.88
2023-03-06T17:18:45.352Z,18.48
2023-03-06T17:21:15.582Z,17.80
2023-03-06T17:23:44.339Z,19.35
2023-03-06T17:26:13.617Z,17.45
2023-03-06T17:28:41.638Z,19.33
2023-03-06T17:31:13.399Z,19.10
2023-03-06T17:33:40.645Z,18.63
2023-03-06T17:36:08.904Z,19.35
2023-03-06T17:38:36.989Z,19.05
2023-03-06T17:41:05.946Z,18.88
2023-03-06T17:43:33.790Z,16.98
2023-03-06T17:46:12.308Z,19.13
2023-03-06T17:48:40.387Z,18.85
2023-03-06T17:51:08.305Z,18.45
2023-03-06T17:53:36.377Z,17.77
2023-03-06T17:56:05.470Z,17.60
2023-03-06T17:58:32.949Z,18.95
2023-03-06T18:01:00.777Z,19.52
2023-03-06T18:03:28.022Z,19.80
2023-03-06T18:06:06.044Z,19.33
2023-03-06T18:08:33.430Z,19.33
2023-03-06T18:11:04.069Z,18.55
2023-03-06T18:13:32.752Z,18.90
2023-03-06T18:16:00.807Z,19.70
2023-03-06T18:18:31.349Z,20.42
2023-03-06T18:21:02.794Z,19.25
2023-03-06T18:23:30.415Z,19.42
2023-03-06T18:26:11.812Z,18.95
2023-03-06T18:28:42.309Z,19.08
2023-03-06T18:31:24.391Z,18.02
2023-03-06T18:33:57.017Z,19.67
2023-03-06T18:36:26.540Z,19.02
2023-03-06T18:38:53.911Z,18.65
2023-03-06T18:41:21.859Z,18.23
2023-03-06T18:43:54.241Z,19.25
2023-03-06T18:46:22.476Z,18.00
2023-03-06T18:48:50.270Z,18.35
2023-03-06T18:51:19.296Z,18.25
2023-03-06T18:53:46.839Z,19.77
2023-03-06T18:56:21.951Z,17.98
2023-03-06T18:58:50.416Z,17.90
2023-03-06T19:01:18.553Z,17.65
2023-03-06T19:03:46.007Z,17.83
2023-03-06T19:06:16.798Z,18.23
2023-03-06T19:08:44.720Z,17.73
2023-03-06T19:11:17.981Z,16.85
2023-03-06T19:13:45.240Z,17.08
2023-03-06T19:16:21.146Z,18.15
2023-03-06T19:18:48.806Z,18.63
2023-03-06T19:21:19.064Z,17.45
2023-03-06T19:23:46.950Z,17.30
2023-03-06T19:26:15.132Z,17.60
2023-03-06T19:28:43.158Z,16.38
2023-03-06T19:31:25.591Z,16.80
2023-03-06T19:33:54.023Z,17.77
2023-03-06T19:36:27.394Z,15.68
2023-03-06T19:38:56.602Z,15.73
2023-03-06T19:41:24.462Z,17.13
2023-03-06T19:43:54.878Z,17.45
2023-03-06T19:46:23.822Z,17.08
2023-03-06T19:48:56.483Z,18.48
2023-03-06T19:51:24.407Z,17.83
2023-03-06T19:53:52.232Z,17.48
2023-03-06T19:56:22.826Z,16.75
2023-03-06T19:58:50.861Z,16.65
2023-03-06T20:01:20.462Z,18.00
2023-03-06T20:03:49.391Z,17.67
2023-03-06T20:06:18.810Z,17.33
2023-03-06T20:08:47.072Z,17.10
2023-03-06T20:11:29.741Z,18.33
2023-03-06T20:14:01.943Z,15.98
2023-03-06T20:16:30.041Z,18.60
2023-03-06T20:18:59.927Z,16.48
2023-03-06T20:21:29.822Z,16.52
2023-03-06T20:23:58.278Z,17.08
2023-03-06T20:26:28.207Z,17.17
2023-03-06T20:28:56.638Z,17.60
2023-03-06T20:31:27.001Z,16.77
2023-03-06T20:33:57.477Z,15.40
2023-03-06T20:36:28.858Z,16.38
2023-03-06T20:38:58.522Z,16.00
2023-03-06T20:41:28.524Z,16.27
2023-03-06T20:43:57.581Z,16.60
2023-03-06T20:46:24.922Z,16.42
2023-03-06T20:48:54.119Z,17.15
2023-03-06T20:51:31.337Z,17.58
2023-03-06T20:54:00.774Z,15.95
2023-03-06T20:56:31.256Z,16.55
2023-03-06T20:58:58.879Z,16.98
2023-03-06T21:01:34.620Z,17.67
2023-03-06T21:04:04.395Z,17.40
2023-03-06T21:06:32.086Z,17.10
2023-03-06T21:09:00.960Z,16.40
2023-03-06T21:11:28.656Z,17.55
2023-03-06T21:13:56.682Z,17.88
2023-03-06T21:16:25.801Z,17.38
2023-03-06T21:18:55.355Z,19.13
2023-03-06T21:21:25.129Z,18.08
2023-03-06T21:23:52.532Z,19.75
2023-03-06T21:26:22.373Z,19.52
2023-03-06T21:28:50.198Z,18.73
2023-03-06T21:31:19.434Z,18.98
2023-03-06T21:33:49.402Z,17.77
2023-03-06T21:36:18.920Z,19.00
2023-03-06T21:38:48.000Z,18.05
2023-03-06T21:41:21.198Z,17.88
2023-03-06T21:43:48.506Z,20.33
2023-03-06T21:46:16.009Z,20.00
2023-03-06T21:48:43.411Z,18.23
2023-03-06T21:51:15.966Z,18.67
2023-03-06T21:53:44.361Z,19.63
2023-03-06T21:56:12.651Z,20.02
2023-03-06T21:58:40.514Z,21.08
2023-03-06T22:01:13.546Z,20.38
2023-03-06T22:03:40.857Z,19.58
2023-03-06T22:06:20.357Z,18.77
2023-03-06T22:08:48.069Z,20.65
2023-03-06T22:11:17.957Z,20.38
2023-03-06T22:13:46.233Z,20.13
2023-03-06T22:16:14.425Z,20.08
2023-03-06T22:18:45.933Z,18.88
2023-03-06T22:21:15.700Z,18.20
2023-03-06T22:23:43.684Z,18.67
2023-03-06T22:26:13.490Z,17.27
2023-03-06T22:28:41.507Z,16.35
2023-03-06T22:31:16.190Z,17.98
2023-03-06T22:33:43.617Z,17.25
2023-03-06T22:36:14.300Z,17.85
2023-03-06T22:38:43.666Z,15.77
2023-03-06T22:41:12.369Z,16.40
2023-03-06T22:43:39.811Z,16.23
2023-03-06T22:46:18.425Z,14.32
2023-03-06T22:48:45.785Z,13.98
2023-03-06T22:51:15.910Z,14.45
2023-03-06T22:53:43.632Z,13.65
2023-03-06T22:56:13.502Z,13.70
2023-03-06T22:58:40.970Z,12.82
2023-03-06T23:01:11.072Z,12.35
2023-03-06T23:03:40.638Z,13.15
2023-03-06T23:06:28.558Z,13.55
2023-03-06T23:09:01.619Z,11.43
2023-03-06T23:11:29.861Z,10.15
2023-03-06T23:14:17.364Z,10.80
2023-03-06T23:17:04.768Z,12.00
2023-03-06T23:19:50.727Z,10.73
2023-03-06T23:22:36.297Z,11.23
2023-03-06T23:25:22.222Z,11.15
2023-03-06T23:27:49.497Z,11.20
2023-03-06T23:30:16.967Z,11.30
2023-03-06T23:32:45.926Z,11.13
2023-03-06T23:35:13.929Z,10.43
2023-03-06T23:37:41.221Z,10.60
2023-03-06T23:40:09.471Z,10.38
2023-03-06T23:42:36.925Z,10.32
2023-03-06T23:45:05.189Z,10.10
2023-03-06T23:47:33.651Z,9.93
2023-03-06T23:50:01.012Z,9.15
2023-03-06T23:52:28.289Z,9.43
2023-03-06T23:54:55.527Z,9.10
2023-03-06T23:57:22.795Z,9.38
2023-03-06T23:59:50.021Z,8.57
